Terminal Aerodrome Forecast
Issued by NWS Tampa Bay Area, FL

Home | Current Version | Previous Version | Text Only | Print | Product List | Glossary On
Versions: 1 2 3 4 5 6 7 8 9 10 11 12
000
FTUS42 KTBW 250539
TAFSRQ
TAF
KSRQ 250539Z 2506/2606 VRB03KT P6SM SCT030 BKN050
      TEMPO 2506/2507 -RA BKN030
     FM250900 13004KT P6SM SCT060
     FM251400 14008KT P6SM SCT020
     FM251700 18011KT P6SM SCT040
     FM252000 22011KT P6SM SCT050
     FM260100 VRB03KT P6SM SCT060=

USA.gov is the U.S. government's official web portal to all federal, state and local government web resources and services.